sensor_id;sensor_type;location;lat;lon;timestamp;temperature;humidity
65470;DHT22;52067;50.710;14.492;2022-09-24T00:00:34;6.05;88.28
65470;DHT22;52067;50.710;14.492;2022-09-24T00:03:00;6.31;88.15
65470;DHT22;52067;50.710;14.492;2022-09-24T00:05:25;6.50;87.60
65470;DHT22;52067;50.710;14.492;2022-09-24T00:07:51;6.60;87.00
65470;DHT22;52067;50.710;14.492;2022-09-24T00:10:17;6.48;86.57
65470;DHT22;52067;50.710;14.492;2022-09-24T00:12:42;6.52;86.81
65470;DHT22;52067;50.710;14.492;2022-09-24T00:15:07;6.58;86.51
65470;DHT22;52067;50.710;14.492;2022-09-24T00:17:33;6.63;86.34
65470;DHT22;52067;50.710;14.492;2022-09-24T00:19:58;6.60;86.40
65470;DHT22;52067;50.710;14.492;2022-09-24T00:22:24;6.60;86.30
65470;DHT22;52067;50.710;14.492;2022-09-24T00:24:49;6.47;87.52
65470;DHT22;52067;50.710;14.492;2022-09-24T00:27:33;6.48;87.44
65470;DHT22;52067;50.710;14.492;2022-09-24T00:29:58;6.64;87.04
65470;DHT22;52067;50.710;14.492;2022-09-24T00:32:24;6.68;87.00
65470;DHT22;52067;50.710;14.492;2022-09-24T00:34:49;6.74;86.76
65470;DHT22;52067;50.710;14.492;2022-09-24T00:37:17;6.71;86.38
65470;DHT22;52067;50.710;14.492;2022-09-24T00:39:46;6.69;86.39
65470;DHT22;52067;50.710;14.492;2022-09-24T00:42:12;6.65;86.89
65470;DHT22;52067;50.710;14.492;2022-09-24T00:47:28;6.61;86.76
65470;DHT22;52067;50.710;14.492;2022-09-24T00:53:05;6.42;87.11
65470;DHT22;52067;50.710;14.492;2022-09-24T00:55:33;6.31;87.72
65470;DHT22;52067;50.710;14.492;2022-09-24T00:58:01;6.37;87.58
65470;DHT22;52067;50.710;14.492;2022-09-24T01:00:28;6.29;87.06
65470;DHT22;52067;50.710;14.492;2022-09-24T01:02:59;6.17;86.95
65470;DHT22;52067;50.710;14.492;2022-09-24T01:05:25;6.07;87.33
65470;DHT22;52067;50.710;14.492;2022-09-24T01:07:51;5.99;87.89
65470;DHT22;52067;50.710;14.492;2022-09-24T01:10:19;6.13;87.93
65470;DHT22;52067;50.710;14.492;2022-09-24T01:15:49;6.02;87.73
65470;DHT22;52067;50.710;14.492;2022-09-24T01:18:37;6.13;87.26
65470;DHT22;52067;50.710;14.492;2022-09-24T01:27:01;6.03;87.29
65470;DHT22;52067;50.710;14.492;2022-09-24T01:32:18;6.13;86.88
65470;DHT22;52067;50.710;14.492;2022-09-24T01:34:51;6.09;86.93
65470;DHT22;52067;50.710;14.492;2022-09-24T01:37:20;5.95;87.63
65470;DHT22;52067;50.710;14.492;2022-09-24T01:39:47;5.90;87.38
65470;DHT22;52067;50.710;14.492;2022-09-24T01:42:15;5.55;88.48
65470;DHT22;52067;50.710;14.492;2022-09-24T01:44:42;5.35;89.14
65470;DHT22;52067;50.710;14.492;2022-09-24T01:47:10;5.62;89.10
65470;DHT22;52067;50.710;14.492;2022-09-24T01:49:38;5.78;88.05
65470;DHT22;52067;50.710;14.492;2022-09-24T01:52:06;5.79;87.55
65470;DHT22;52067;50.710;14.492;2022-09-24T01:54:38;5.83;87.40
65470;DHT22;52067;50.710;14.492;2022-09-24T01:57:12;5.82;87.13
65470;DHT22;52067;50.710;14.492;2022-09-24T01:59:43;5.51;88.48
65470;DHT22;52067;50.710;14.492;2022-09-24T02:05:13;5.41;88.42
65470;DHT22;52067;50.710;14.492;2022-09-24T02:07:45;5.55;87.99
65470;DHT22;52067;50.710;14.492;2022-09-24T02:10:17;5.59;87.60
65470;DHT22;52067;50.710;14.492;2022-09-24T02:12:45;5.54;87.69
65470;DHT22;52067;50.710;14.492;2022-09-24T02:15:18;5.50;87.52
65470;DHT22;52067;50.710;14.492;2022-09-24T02:17:48;5.55;87.52
65470;DHT22;52067;50.710;14.492;2022-09-24T02:20:19;5.58;87.32
65470;DHT22;52067;50.710;14.492;2022-09-24T02:22:48;5.41;87.40
65470;DHT22;52067;50.710;14.492;2022-09-24T02:25:19;5.41;87.44
65470;DHT22;52067;50.710;14.492;2022-09-24T02:27:45;5.40;87.34
65470;DHT22;52067;50.710;14.492;2022-09-24T02:30:11;5.00;88.23
65470;DHT22;52067;50.710;14.492;2022-09-24T02:32:39;5.19;88.22
65470;DHT22;52067;50.710;14.492;2022-09-24T02:35:07;5.16;87.84
65470;DHT22;52067;50.710;14.492;2022-09-24T02:37:35;5.11;87.75
65470;DHT22;52067;50.710;14.492;2022-09-24T02:40:03;5.04;87.97
65470;DHT22;52067;50.710;14.492;2022-09-24T02:42:30;5.09;87.87
65470;DHT22;52067;50.710;14.492;2022-09-24T02:44:56;4.76;88.38
65470;DHT22;52067;50.710;14.492;2022-09-24T02:47:24;4.75;89.16
65470;DHT22;52067;50.710;14.492;2022-09-24T02:49:49;4.75;89.01
65470;DHT22;52067;50.710;14.492;2022-09-24T02:52:15;4.83;88.54
65470;DHT22;52067;50.710;14.492;2022-09-24T02:54:40;4.87;88.24
65470;DHT22;52067;50.710;14.492;2022-09-24T02:57:07;4.99;87.97
65470;DHT22;52067;50.710;14.492;2022-09-24T02:59:32;4.94;87.70
65470;DHT22;52067;50.710;14.492;2022-09-24T03:01:57;4.89;87.33
65470;DHT22;52067;50.710;14.492;2022-09-24T03:04:23;4.66;88.78
65470;DHT22;52067;50.710;14.492;2022-09-24T03:06:49;4.63;88.82
65470;DHT22;52067;50.710;14.492;2022-09-24T03:09:15;4.59;88.72
65470;DHT22;52067;50.710;14.492;2022-09-24T03:11:40;4.66;88.53
65470;DHT22;52067;50.710;14.492;2022-09-24T03:14:05;4.80;88.07
65470;DHT22;52067;50.710;14.492;2022-09-24T03:16:31;4.79;87.98
65470;DHT22;52067;50.710;14.492;2022-09-24T03:18:57;4.76;88.03
65470;DHT22;52067;50.710;14.492;2022-09-24T03:21:23;4.83;87.92
65470;DHT22;52067;50.710;14.492;2022-09-24T03:23:48;4.87;87.43
65470;DHT22;52067;50.710;14.492;2022-09-24T03:26:14;4.94;87.18
65470;DHT22;52067;50.710;14.492;2022-09-24T03:28:39;4.93;87.14
65470;DHT22;52067;50.710;14.492;2022-09-24T03:31:06;4.80;88.03
65470;DHT22;52067;50.710;14.492;2022-09-24T03:33:43;4.63;88.43
65470;DHT22;52067;50.710;14.492;2022-09-24T03:36:14;4.79;88.27
65470;DHT22;52067;50.710;14.492;2022-09-24T03:38:42;4.66;88.13
65470;DHT22;52067;50.710;14.492;2022-09-24T03:41:08;4.76;88.60
65470;DHT22;52067;50.710;14.492;2022-09-24T03:43:35;4.66;88.66
65470;DHT22;52067;50.710;14.492;2022-09-24T03:46:01;4.73;88.25
65470;DHT22;52067;50.710;14.492;2022-09-24T03:48:27;4.83;88.12
65470;DHT22;52067;50.710;14.492;2022-09-24T03:50:54;4.63;88.01
65470;DHT22;52067;50.710;14.492;2022-09-24T03:53:21;4.53;88.84
65470;DHT22;52067;50.710;14.492;2022-09-24T03:55:53;4.58;88.88
65470;DHT22;52067;50.710;14.492;2022-09-24T03:58:19;4.71;88.60
65470;DHT22;52067;50.710;14.492;2022-09-24T04:00:45;4.79;88.05
65470;DHT22;52067;50.710;14.492;2022-09-24T04:03:10;4.79;87.80
65470;DHT22;52067;50.710;14.492;2022-09-24T04:05:36;4.75;88.05
65470;DHT22;52067;50.710;14.492;2022-09-24T04:08:02;4.59;88.45
65470;DHT22;52067;50.710;14.492;2022-09-24T04:10:30;4.62;88.67
65470;DHT22;52067;50.710;14.492;2022-09-24T04:12:55;4.62;88.65
65470;DHT22;52067;50.710;14.492;2022-09-24T04:15:21;4.73;88.16
65470;DHT22;52067;50.710;14.492;2022-09-24T04:17:52;4.71;87.84
65470;DHT22;52067;50.710;14.492;2022-09-24T04:20:19;4.73;87.61
65470;DHT22;52067;50.710;14.492;2022-09-24T04:22:52;4.71;87.33
65470;DHT22;52067;50.710;14.492;2022-09-24T04:25:18;4.71;87.34
65470;DHT22;52067;50.710;14.492;2022-09-24T04:27:44;4.65;87.22
65470;DHT22;52067;50.710;14.492;2022-09-24T04:30:11;4.18;89.15
65470;DHT22;52067;50.710;14.492;2022-09-24T04:32:37;4.05;89.65
65470;DHT22;52067;50.710;14.492;2022-09-24T04:35:03;4.20;89.77
65470;DHT22;52067;50.710;14.492;2022-09-24T04:37:28;4.30;89.02
65470;DHT22;52067;50.710;14.492;2022-09-24T04:39:54;4.41;88.58
65470;DHT22;52067;50.710;14.492;2022-09-24T04:42:19;4.49;88.30
65470;DHT22;52067;50.710;14.492;2022-09-24T04:44:45;4.48;88.57
65470;DHT22;52067;50.710;14.492;2022-09-24T04:47:12;4.49;88.29
65470;DHT22;52067;50.710;14.492;2022-09-24T04:49:39;4.17;88.65
65470;DHT22;52067;50.710;14.492;2022-09-24T04:52:04;4.15;89.45
65470;DHT22;52067;50.710;14.492;2022-09-24T04:54:30;4.37;88.98
65470;DHT22;52067;50.710;14.492;2022-09-24T04:56:56;4.31;88.54
65470;DHT22;52067;50.710;14.492;2022-09-24T04:59:21;4.34;88.68
65470;DHT22;52067;50.710;14.492;2022-09-24T05:01:47;4.53;88.82
65470;DHT22;52067;50.710;14.492;2022-09-24T05:04:12;4.48;88.60
65470;DHT22;52067;50.710;14.492;2022-09-24T05:06:38;4.49;88.53
65470;DHT22;52067;50.710;14.492;2022-09-24T05:09:03;4.27;88.41
65470;DHT22;52067;50.710;14.492;2022-09-24T05:11:28;4.37;88.59
65470;DHT22;52067;50.710;14.492;2022-09-24T05:13:54;4.46;88.43
65470;DHT22;52067;50.710;14.492;2022-09-24T05:16:19;4.53;88.67
65470;DHT22;52067;50.710;14.492;2022-09-24T05:18:44;4.68;88.39
65470;DHT22;52067;50.710;14.492;2022-09-24T05:21:10;4.69;88.15
65470;DHT22;52067;50.710;14.492;2022-09-24T05:23:35;4.83;88.35
65470;DHT22;52067;50.710;14.492;2022-09-24T05:26:00;4.82;88.36
65470;DHT22;52067;50.710;14.492;2022-09-24T05:28:44;4.77;88.27
65470;DHT22;52067;50.710;14.492;2022-09-24T05:31:10;4.93;87.87
65470;DHT22;52067;50.710;14.492;2022-09-24T05:33:36;5.04;87.67
65470;DHT22;52067;50.710;14.492;2022-09-24T05:36:02;5.24;88.12
65470;DHT22;52067;50.710;14.492;2022-09-24T05:38:28;5.09;89.47
65470;DHT22;52067;50.710;14.492;2022-09-24T05:40:54;5.03;88.86
65470;DHT22;52067;50.710;14.492;2022-09-24T05:43:20;5.26;88.42
65470;DHT22;52067;50.710;14.492;2022-09-24T05:45:45;4.97;88.78
65470;DHT22;52067;50.710;14.492;2022-09-24T05:48:11;5.09;88.37
65470;DHT22;52067;50.710;14.492;2022-09-24T05:50:36;5.32;88.21
65470;DHT22;52067;50.710;14.492;2022-09-24T05:53:03;5.24;88.42
65470;DHT22;52067;50.710;14.492;2022-09-24T05:55:29;5.38;88.20
65470;DHT22;52067;50.710;14.492;2022-09-24T05:57:55;5.41;88.41
65470;DHT22;52067;50.710;14.492;2022-09-24T06:00:25;5.65;87.76
65470;DHT22;52067;50.710;14.492;2022-09-24T06:02:51;5.68;87.33
65470;DHT22;52067;50.710;14.492;2022-09-24T06:05:16;5.89;87.31
65470;DHT22;52067;50.710;14.492;2022-09-24T06:07:41;5.51;88.50
65470;DHT22;52067;50.710;14.492;2022-09-24T06:10:07;5.42;89.26
65470;DHT22;52067;50.710;14.492;2022-09-24T06:12:33;5.40;89.88
65470;DHT22;52067;50.710;14.492;2022-09-24T06:15:02;5.41;89.64
65470;DHT22;52067;50.710;14.492;2022-09-24T06:17:29;5.59;90.04
65470;DHT22;52067;50.710;14.492;2022-09-24T06:19:56;5.59;90.14
65470;DHT22;52067;50.710;14.492;2022-09-24T06:22:22;5.58;89.79
65470;DHT22;52067;50.710;14.492;2022-09-24T06:24:47;5.66;90.15
65470;DHT22;52067;50.710;14.492;2022-09-24T06:27:12;5.85;90.14
65470;DHT22;52067;50.710;14.492;2022-09-24T06:29:38;5.99;89.24
65470;DHT22;52067;50.710;14.492;2022-09-24T06:32:03;6.24;88.60
65470;DHT22;52067;50.710;14.492;2022-09-24T06:34:29;6.48;88.36
65470;DHT22;52067;50.710;14.492;2022-09-24T06:36:55;6.50;87.36
65470;DHT22;52067;50.710;14.492;2022-09-24T06:39:24;6.36;88.34
65470;DHT22;52067;50.710;14.492;2022-09-24T06:41:51;6.52;89.22
65470;DHT22;52067;50.710;14.492;2022-09-24T06:44:17;6.64;87.95
65470;DHT22;52067;50.710;14.492;2022-09-24T06:46:43;7.02;87.89
65470;DHT22;52067;50.710;14.492;2022-09-24T06:49:09;6.88;88.14
65470;DHT22;52067;50.710;14.492;2022-09-24T06:51:35;7.29;87.41
65470;DHT22;52067;50.710;14.492;2022-09-24T06:54:00;7.58;86.86
65470;DHT22;52067;50.710;14.492;2022-09-24T06:56:25;7.73;86.00
65470;DHT22;52067;50.710;14.492;2022-09-24T06:58:51;7.92;85.82
65470;DHT22;52067;50.710;14.492;2022-09-24T07:01:16;8.19;84.96
65470;DHT22;52067;50.710;14.492;2022-09-24T07:03:42;8.35;84.75
65470;DHT22;52067;50.710;14.492;2022-09-24T07:06:07;8.54;84.52
65470;DHT22;52067;50.710;14.492;2022-09-24T07:08:33;8.77;84.21
65470;DHT22;52067;50.710;14.492;2022-09-24T07:10:58;8.88;83.34
65470;DHT22;52067;50.710;14.492;2022-09-24T07:13:25;8.91;83.94
65470;DHT22;52067;50.710;14.492;2022-09-24T07:15:51;9.11;84.02
65470;DHT22;52067;50.710;14.492;2022-09-24T07:18:17;9.29;83.46
65470;DHT22;52067;50.710;14.492;2022-09-24T07:20:43;9.31;83.18
65470;DHT22;52067;50.710;14.492;2022-09-24T07:23:10;9.49;84.00
65470;DHT22;52067;50.710;14.492;2022-09-24T07:25:36;9.19;84.57
65470;DHT22;52067;50.710;14.492;2022-09-24T07:28:06;9.26;85.22
65470;DHT22;52067;50.710;14.492;2022-09-24T07:30:33;9.36;82.09
65470;DHT22;52067;50.710;14.492;2022-09-24T07:32:59;9.56;80.91
65470;DHT22;52067;50.710;14.492;2022-09-24T07:35:25;9.76;80.63
65470;DHT22;52067;50.710;14.492;2022-09-24T07:38:06;10.11;81.97
65470;DHT22;52067;50.710;14.492;2022-09-24T07:40:32;10.32;81.83
65470;DHT22;52067;50.710;14.492;2022-09-24T07:42:58;10.51;77.99
65470;DHT22;52067;50.710;14.492;2022-09-24T07:45:26;10.56;79.31
65470;DHT22;52067;50.710;14.492;2022-09-24T07:47:58;10.80;79.42
65470;DHT22;52067;50.710;14.492;2022-09-24T07:50:24;10.79;77.66
65470;DHT22;52067;50.710;14.492;2022-09-24T07:52:50;10.82;76.60
65470;DHT22;52067;50.710;14.492;2022-09-24T07:55:16;10.77;77.72
65470;DHT22;52067;50.710;14.492;2022-09-24T07:57:50;10.80;77.06
65470;DHT22;52067;50.710;14.492;2022-09-24T08:00:16;10.69;77.57
65470;DHT22;52067;50.710;14.492;2022-09-24T08:02:43;10.83;77.27
65470;DHT22;52067;50.710;14.492;2022-09-24T08:05:09;11.14;76.52
65470;DHT22;52067;50.710;14.492;2022-09-24T08:07:35;11.24;74.99
65470;DHT22;52067;50.710;14.492;2022-09-24T08:10:00;11.21;73.54
65470;DHT22;52067;50.710;14.492;2022-09-24T08:12:26;11.32;71.74
65470;DHT22;52067;50.710;14.492;2022-09-24T08:14:52;11.35;73.02
65470;DHT22;52067;50.710;14.492;2022-09-24T08:17:18;11.59;71.41
65470;DHT22;52067;50.710;14.492;2022-09-24T08:19:43;11.67;70.56
65470;DHT22;52067;50.710;14.492;2022-09-24T08:22:10;11.69;71.51
65470;DHT22;52067;50.710;14.492;2022-09-24T08:24:36;11.75;71.76
65470;DHT22;52067;50.710;14.492;2022-09-24T08:27:02;11.90;71.61
65470;DHT22;52067;50.710;14.492;2022-09-24T08:29:27;12.03;71.74
65470;DHT22;52067;50.710;14.492;2022-09-24T08:31:52;12.23;70.02
65470;DHT22;52067;50.710;14.492;2022-09-24T08:34:18;12.12;69.13
65470;DHT22;52067;50.710;14.492;2022-09-24T08:36:44;12.29;69.77
65470;DHT22;52067;50.710;14.492;2022-09-24T08:39:09;12.44;70.48
65470;DHT22;52067;50.710;14.492;2022-09-24T08:41:57;12.58;69.70
65470;DHT22;52067;50.710;14.492;2022-09-24T08:44:36;12.74;67.98
65470;DHT22;52067;50.710;14.492;2022-09-24T08:50:16;12.96;69.04
65470;DHT22;52067;50.710;14.492;2022-09-24T09:01:23;13.52;68.12
65470;DHT22;52067;50.710;14.492;2022-09-24T09:07:18;13.46;67.40
65470;DHT22;52067;50.710;14.492;2022-09-24T09:09:59;13.54;64.88
65470;DHT22;52067;50.710;14.492;2022-09-24T09:12:45;13.62;65.28
65470;DHT22;52067;50.710;14.492;2022-09-24T09:15:15;13.53;66.74
65470;DHT22;52067;50.710;14.492;2022-09-24T09:17:55;13.78;64.30
65470;DHT22;52067;50.710;14.492;2022-09-24T09:20:33;13.94;64.65
65470;DHT22;52067;50.710;14.492;2022-09-24T09:23:09;13.80;64.43
65470;DHT22;52067;50.710;14.492;2022-09-24T09:25:40;14.11;65.61
65470;DHT22;52067;50.710;14.492;2022-09-24T09:28:11;14.36;63.69
65470;DHT22;52067;50.710;14.492;2022-09-24T09:31:38;14.73;63.45
65470;DHT22;52067;50.710;14.492;2022-09-24T09:34:08;15.86;60.50
65470;DHT22;52067;50.710;14.492;2022-09-24T09:39:37;18.06;54.43
65470;DHT22;52067;50.710;14.492;2022-09-24T09:42:30;19.65;48.68
65470;DHT22;52067;50.710;14.492;2022-09-24T09:47:59;20.69;45.56
65470;DHT22;52067;50.710;14.492;2022-09-24T09:50:38;22.08;43.95
65470;DHT22;52067;50.710;14.492;2022-09-24T09:53:20;22.01;42.40
65470;DHT22;52067;50.710;14.492;2022-09-24T09:56:00;22.80;42.31
65470;DHT22;52067;50.710;14.492;2022-09-24T09:58:29;21.99;41.83
65470;DHT22;52067;50.710;14.492;2022-09-24T10:01:14;23.18;41.53
65470;DHT22;52067;50.710;14.492;2022-09-24T10:06:28;24.00;38.40
65470;DHT22;52067;50.710;14.492;2022-09-24T10:09:25;23.97;38.60
65470;DHT22;52067;50.710;14.492;2022-09-24T10:11:50;21.37;44.97
65470;DHT22;52067;50.710;14.492;2022-09-24T10:14:16;21.19;44.86
65470;DHT22;52067;50.710;14.492;2022-09-24T10:16:44;20.27;46.23
65470;DHT22;52067;50.710;14.492;2022-09-24T10:21:39;20.92;45.42
65470;DHT22;52067;50.710;14.492;2022-09-24T10:24:11;21.63;43.42
65470;DHT22;52067;50.710;14.492;2022-09-24T10:26:42;19.90;47.49
65470;DHT22;52067;50.710;14.492;2022-09-24T10:29:32;19.38;47.87
65470;DHT22;52067;50.710;14.492;2022-09-24T10:32:18;18.31;49.76
65470;DHT22;52067;50.710;14.492;2022-09-24T10:34:55;18.70;50.41
65470;DHT22;52067;50.710;14.492;2022-09-24T10:37:20;19.01;48.55
65470;DHT22;52067;50.710;14.492;2022-09-24T10:39:59;20.35;47.03
65470;DHT22;52067;50.710;14.492;2022-09-24T10:42:27;21.10;44.89
65470;DHT22;52067;50.710;14.492;2022-09-24T10:44:54;21.26;43.38
65470;DHT22;52067;50.710;14.492;2022-09-24T11:20:18;22.78;39.37
65470;DHT22;52067;50.710;14.492;2022-09-24T11:28:29;22.48;40.69
65470;DHT22;52067;50.710;14.492;2022-09-24T11:31:11;24.31;38.79
65470;DHT22;52067;50.710;14.492;2022-09-24T11:34:14;24.57;38.53
65470;DHT22;52067;50.710;14.492;2022-09-24T11:39:18;23.56;39.58
65470;DHT22;52067;50.710;14.492;2022-09-24T11:42:03;24.47;37.78
65470;DHT22;52067;50.710;14.492;2022-09-24T11:53:00;25.98;33.89
65470;DHT22;52067;50.710;14.492;2022-09-24T12:00:35;26.45;32.72
65470;DHT22;52067;50.710;14.492;2022-09-24T12:03:17;25.50;35.45
65470;DHT22;52067;50.710;14.492;2022-09-24T12:05:52;24.67;35.56
65470;DHT22;52067;50.710;14.492;2022-09-24T12:08:22;24.20;36.49
65470;DHT22;52067;50.710;14.492;2022-09-24T12:13:35;22.18;42.22
65470;DHT22;52067;50.710;14.492;2022-09-24T12:16:11;22.38;37.77
65470;DHT22;52067;50.710;14.492;2022-09-24T12:18:44;22.12;39.89
65470;DHT22;52067;50.710;14.492;2022-09-24T12:21:16;20.93;42.44
65470;DHT22;52067;50.710;14.492;2022-09-24T12:23:45;21.61;39.98
65470;DHT22;52067;50.710;14.492;2022-09-24T12:26:13;20.86;42.38
65470;DHT22;52067;50.710;14.492;2022-09-24T12:31:56;21.26;43.81
65470;DHT22;52067;50.710;14.492;2022-09-24T12:35:00;21.51;42.88
65470;DHT22;52067;50.710;14.492;2022-09-24T12:37:36;22.29;40.95
65470;DHT22;52067;50.710;14.492;2022-09-24T12:42:58;24.88;35.16
65470;DHT22;52067;50.710;14.492;2022-09-24T12:45:26;24.93;36.56
65470;DHT22;52067;50.710;14.492;2022-09-24T12:47:57;24.98;35.03
65470;DHT22;52067;50.710;14.492;2022-09-24T12:50:26;25.66;33.38
65470;DHT22;52067;50.710;14.492;2022-09-24T12:52:52;25.24;33.07
65470;DHT22;52067;50.710;14.492;2022-09-24T12:55:23;26.18;32.51
65470;DHT22;52067;50.710;14.492;2022-09-24T12:58:05;25.98;35.46
65470;DHT22;52067;50.710;14.492;2022-09-24T13:02:57;25.82;33.65
65470;DHT22;52067;50.710;14.492;2022-09-24T13:08:03;25.73;32.70
65470;DHT22;52067;50.710;14.492;2022-09-24T13:10:56;26.05;33.34
65470;DHT22;52067;50.710;14.492;2022-09-24T13:13:25;25.03;35.07
65470;DHT22;52067;50.710;14.492;2022-09-24T13:16:03;25.30;36.37
65470;DHT22;52067;50.710;14.492;2022-09-24T13:18:31;27.12;30.88
65470;DHT22;52067;50.710;14.492;2022-09-24T13:21:04;27.66;30.98
65470;DHT22;52067;50.710;14.492;2022-09-24T13:23:44;24.99;35.65
65470;DHT22;52067;50.710;14.492;2022-09-24T13:26:27;26.90;32.21
65470;DHT22;52067;50.710;14.492;2022-09-24T13:28:58;26.46;33.60
65470;DHT22;52067;50.710;14.492;2022-09-24T13:31:30;26.21;33.09
65470;DHT22;52067;50.710;14.492;2022-09-24T13:36:39;27.61;31.43
65470;DHT22;52067;50.710;14.492;2022-09-24T13:39:15;27.74;32.62
65470;DHT22;52067;50.710;14.492;2022-09-24T13:44:52;26.91;33.09
65470;DHT22;52067;50.710;14.492;2022-09-24T13:47:44;27.52;30.89
65470;DHT22;52067;50.710;14.492;2022-09-24T13:50:39;27.61;31.86
65470;DHT22;52067;50.710;14.492;2022-09-24T13:53:30;26.63;32.46
65470;DHT22;52067;50.710;14.492;2022-09-24T13:56:04;26.18;34.54
65470;DHT22;52067;50.710;14.492;2022-09-24T14:01:03;26.63;31.34
65470;DHT22;52067;50.710;14.492;2022-09-24T14:03:34;27.82;31.75
65470;DHT22;52067;50.710;14.492;2022-09-24T14:06:11;28.52;29.43
65470;DHT22;52067;50.710;14.492;2022-09-24T14:08:40;27.78;29.39
65470;DHT22;52067;50.710;14.492;2022-09-24T14:11:26;25.75;33.86
65470;DHT22;52067;50.710;14.492;2022-09-24T14:13:52;27.01;32.16
65470;DHT22;52067;50.710;14.492;2022-09-24T14:16:21;27.69;30.16
65470;DHT22;52067;50.710;14.492;2022-09-24T14:18:47;25.49;33.72
65470;DHT22;52067;50.710;14.492;2022-09-24T14:23:51;26.01;32.21
65470;DHT22;52067;50.710;14.492;2022-09-24T14:26:27;26.21;32.89
65470;DHT22;52067;50.710;14.492;2022-09-24T14:28:55;27.11;31.68
65470;DHT22;52067;50.710;14.492;2022-09-24T14:31:22;26.60;30.30
65470;DHT22;52067;50.710;14.492;2022-09-24T14:33:48;26.56;31.66
65470;DHT22;52067;50.710;14.492;2022-09-24T14:36:14;25.46;33.76
65470;DHT22;52067;50.710;14.492;2022-09-24T14:39:00;23.59;37.79
65470;DHT22;52067;50.710;14.492;2022-09-24T14:41:31;23.49;37.25
65470;DHT22;52067;50.710;14.492;2022-09-24T14:44:01;22.97;40.02
65470;DHT22;52067;50.710;14.492;2022-09-24T14:46:38;24.04;35.85
65470;DHT22;52067;50.710;14.492;2022-09-24T14:49:25;24.10;36.54
65470;DHT22;52067;50.710;14.492;2022-09-24T14:51:58;24.18;35.27
65470;DHT22;52067;50.710;14.492;2022-09-24T14:54:37;25.08;35.68
65470;DHT22;52067;50.710;14.492;2022-09-24T14:59:42;22.36;39.31
65470;DHT22;52067;50.710;14.492;2022-09-24T15:02:18;21.67;41.70
65470;DHT22;52067;50.710;14.492;2022-09-24T15:04:46;21.33;42.49
65470;DHT22;52067;50.710;14.492;2022-09-24T15:07:15;20.75;43.19
65470;DHT22;52067;50.710;14.492;2022-09-24T15:09:42;19.38;46.30
65470;DHT22;52067;50.710;14.492;2022-09-24T15:12:18;19.42;46.42
65470;DHT22;52067;50.710;14.492;2022-09-24T15:17:33;18.46;49.39
65470;DHT22;52067;50.710;14.492;2022-09-24T15:20:00;18.64;50.14
65470;DHT22;52067;50.710;14.492;2022-09-24T15:22:28;18.98;48.56
65470;DHT22;52067;50.710;14.492;2022-09-24T15:24:55;18.89;47.98
65470;DHT22;52067;50.710;14.492;2022-09-24T15:27:21;18.56;49.29
65470;DHT22;52067;50.710;14.492;2022-09-24T15:29:48;18.49;50.71
65470;DHT22;52067;50.710;14.492;2022-09-24T15:32:15;18.45;49.52
65470;DHT22;52067;50.710;14.492;2022-09-24T15:34:41;18.57;49.96
65470;DHT22;52067;50.710;14.492;2022-09-24T15:37:08;18.60;49.92
65470;DHT22;52067;50.710;14.492;2022-09-24T15:39:36;18.48;49.63
65470;DHT22;52067;50.710;14.492;2022-09-24T15:42:02;18.73;50.33
65470;DHT22;52067;50.710;14.492;2022-09-24T15:44:27;18.49;52.68
65470;DHT22;52067;50.710;14.492;2022-09-24T15:46:52;17.95;53.93
65470;DHT22;52067;50.710;14.492;2022-09-24T15:49:21;18.28;53.07
65470;DHT22;52067;50.710;14.492;2022-09-24T15:51:52;18.39;53.44
65470;DHT22;52067;50.710;14.492;2022-09-24T15:54:19;18.33;53.00
65470;DHT22;52067;50.710;14.492;2022-09-24T15:56:46;18.09;51.71
65470;DHT22;52067;50.710;14.492;2022-09-24T15:59:17;17.84;53.58
65470;DHT22;52067;50.710;14.492;2022-09-24T16:01:43;17.90;56.23
65470;DHT22;52067;50.710;14.492;2022-09-24T16:04:10;17.81;55.83
65470;DHT22;52067;50.710;14.492;2022-09-24T16:06:36;17.54;58.86
65470;DHT22;52067;50.710;14.492;2022-09-24T16:09:02;17.27;59.00
65470;DHT22;52067;50.710;14.492;2022-09-24T16:11:28;17.02;59.85
65470;DHT22;52067;50.710;14.492;2022-09-24T16:13:54;16.92;59.01
65470;DHT22;52067;50.710;14.492;2022-09-24T16:16:19;16.94;61.62
65470;DHT22;52067;50.710;14.492;2022-09-24T16:18:44;16.75;61.84
65470;DHT22;52067;50.710;14.492;2022-09-24T16:21:10;16.44;63.54
65470;DHT22;52067;50.710;14.492;2022-09-24T16:23:35;16.51;62.61
65470;DHT22;52067;50.710;14.492;2022-09-24T16:26:02;16.33;61.98
65470;DHT22;52067;50.710;14.492;2022-09-24T16:28:27;16.20;62.65
65470;DHT22;52067;50.710;14.492;2022-09-24T16:30:53;15.44;66.35
65470;DHT22;52067;50.710;14.492;2022-09-24T16:33:20;14.68;68.91
65470;DHT22;52067;50.710;14.492;2022-09-24T16:35:45;14.18;71.64
65470;DHT22;52067;50.710;14.492;2022-09-24T16:38:11;13.91;73.28
65470;DHT22;52067;50.710;14.492;2022-09-24T16:40:37;14.18;71.68
65470;DHT22;52067;50.710;14.492;2022-09-24T16:43:02;14.22;70.77
65470;DHT22;52067;50.710;14.492;2022-09-24T16:45:30;14.10;72.06
65470;DHT22;52067;50.710;14.492;2022-09-24T16:47:55;14.25;71.59
65470;DHT22;52067;50.710;14.492;2022-09-24T16:50:21;14.25;71.54
65470;DHT22;52067;50.710;14.492;2022-09-24T16:52:48;14.07;73.45
65470;DHT22;52067;50.710;14.492;2022-09-24T16:55:15;13.88;72.95
65470;DHT22;52067;50.710;14.492;2022-09-24T16:57:40;13.94;72.61
65470;DHT22;52067;50.710;14.492;2022-09-24T17:00:07;13.60;73.64
65470;DHT22;52067;50.710;14.492;2022-09-24T17:02:34;13.39;74.79
65470;DHT22;52067;50.710;14.492;2022-09-24T17:05:00;13.38;74.42
65470;DHT22;52067;50.710;14.492;2022-09-24T17:07:29;13.23;75.10
65470;DHT22;52067;50.710;14.492;2022-09-24T17:09:55;12.20;79.14
65470;DHT22;52067;50.710;14.492;2022-09-24T17:12:41;12.30;79.37
65470;DHT22;52067;50.710;14.492;2022-09-24T17:15:07;12.10;80.12
65470;DHT22;52067;50.710;14.492;2022-09-24T17:17:32;11.88;81.03
65470;DHT22;52067;50.710;14.492;2022-09-24T17:19:58;11.96;80.46
65470;DHT22;52067;50.710;14.492;2022-09-24T17:22:23;12.06;80.05
65470;DHT22;52067;50.710;14.492;2022-09-24T17:24:49;12.13;79.29
65470;DHT22;52067;50.710;14.492;2022-09-24T17:27:14;11.89;80.19
65470;DHT22;52067;50.710;14.492;2022-09-24T17:29:39;11.75;81.02
65470;DHT22;52067;50.710;14.492;2022-09-24T17:32:06;11.75;81.16
65470;DHT22;52067;50.710;14.492;2022-09-24T17:34:32;11.71;80.78
65470;DHT22;52067;50.710;14.492;2022-09-24T17:36:57;11.41;81.95
65470;DHT22;52067;50.710;14.492;2022-09-24T17:39:24;11.19;82.40
65470;DHT22;52067;50.710;14.492;2022-09-24T17:41:49;11.01;83.23
65470;DHT22;52067;50.710;14.492;2022-09-24T17:44:15;10.79;84.00
65470;DHT22;52067;50.710;14.492;2022-09-24T17:46:43;10.92;83.17